sensor_id;sensor_type;location;lat;lon;timestamp;pressure;altitude;pressure_sealevel;temperature;humidity
26178;BME280;13924;47.670;10.310;2023-03-25T00:00:40;92890;;;7.4;100.0
26178;BME280;13924;47.670;10.310;2023-03-25T00:15:41;92850;;;7.5;100.0
26178;BME280;13924;47.670;10.310;2023-03-25T00:30:43;92830;;;7.8;100.0
26178;BME280;13924;47.670;10.310;2023-03-25T00:45:39;92900;;;7.7;100.0
26178;BME280;13924;47.670;10.310;2023-03-25T01:00:42;92920;;;7.4;100.0
26178;BME280;13924;47.670;10.310;2023-03-25T01:30:41;93030;;;6.5;100.0
26178;BME280;13924;47.670;10.310;2023-03-25T01:45:39;93030;;;6.6;100.0
26178;BME280;13924;47.670;10.310;2023-03-25T02:00:43;92910;;;6.8;100.0
26178;BME280;13924;47.670;10.310;2023-03-25T02:01:27;92880;;;6.8;100.0
26178;BME280;13924;47.670;10.310;2023-03-25T02:28:35;92880;;;6.8;100.0
26178;BME280;13924;47.670;10.310;2023-03-25T02:31:33;93010;;;5.8;100.0
26178;BME280;13924;47.670;10.310;2023-03-25T02:45:46;93000;;;5.8;100.0
26178;BME280;13924;47.670;10.310;2023-03-25T03:00:45;93060;;;5.5;100.0
26178;BME280;13924;47.670;10.310;2023-03-25T03:15:53;93150;;;5.2;100.0
26178;BME280;13924;47.670;10.310;2023-03-25T03:30:56;93150;;;5.2;100.0
26178;BME280;13924;47.670;10.310;2023-03-25T03:45:47;92980;;;5.8;100.0
26178;BME280;13924;47.670;10.310;2023-03-25T04:29:54;92980;;;5.8;100.0
26178;BME280;13924;47.670;10.310;2023-03-25T04:30:56;92800;;;6.2;100.0
26178;BME280;13924;47.670;10.310;2023-03-25T12:32:00;93280;;;5.7;100.0
26178;BME280;13924;47.670;10.310;2023-03-25T12:47:01;93270;;;6.7;100.0
26178;BME280;13924;47.670;10.310;2023-03-25T13:02:06;93270;;;6.7;100.0
26178;BME280;13924;47.670;10.310;2023-03-25T13:16:54;93370;;;6.5;100.0
26178;BME280;13924;47.670;10.310;2023-03-25T13:31:56;93370;;;6.5;100.0
26178;BME280;13924;47.670;10.310;2023-03-25T13:47:01;93390;;;6.2;100.0
26178;BME280;13924;47.670;10.310;2023-03-25T14:02:09;93110;;;7.8;100.0
26178;BME280;13924;47.670;10.310;2023-03-25T14:16:55;93020;;;7.8;100.0
26178;BME280;13924;47.670;10.310;2023-03-25T14:32:03;92960;;;7.7;100.0
26178;BME280;13924;47.670;10.310;2023-03-25T14:46:58;92840;;;8.7;100.0
26178;BME280;13924;47.670;10.310;2023-03-25T15:01:53;92820;;;9.0;100.0
26178;BME280;13924;47.670;10.310;2023-03-25T15:17:03;92830;;;9.0;100.0
26178;BME280;13924;47.670;10.310;2023-03-25T15:32:04;92850;;;8.6;100.0
26178;BME280;13924;47.670;10.310;2023-03-25T15:47:41;92850;;;8.6;100.0
26178;BME280;13924;47.670;10.310;2023-03-25T16:01:55;92830;;;8.3;100.0
26178;BME280;13924;47.670;10.310;2023-03-25T16:17:06;92830;;;8.3;100.0
26178;BME280;13924;47.670;10.310;2023-03-25T16:32:00;92870;;;8.2;100.0
26178;BME280;13924;47.670;10.310;2023-03-25T16:46:58;92920;;;7.4;100.0
26178;BME280;13924;47.670;10.310;2023-03-25T17:02:28;92920;;;7.4;100.0
26178;BME280;13924;47.670;10.310;2023-03-25T17:17:05;92860;;;7.2;100.0
26178;BME280;13924;47.670;10.310;2023-03-25T17:31:59;92860;;;7.2;100.0
26178;BME280;13924;47.670;10.310;2023-03-25T17:47:25;92870;;;7.5;100.0
26178;BME280;13924;47.670;10.310;2023-03-25T18:02:09;92940;;;7.0;100.0
26178;BME280;13924;47.670;10.310;2023-03-25T18:17:01;93260;;;6.0;100.0
26178;BME280;13924;47.670;10.310;2023-03-25T18:32:41;93260;;;6.0;100.0
26178;BME280;13924;47.670;10.310;2023-03-25T18:47:00;93070;;;6.2;100.0
26178;BME280;13924;47.670;10.310;2023-03-25T19:02:01;93060;;;6.1;100.0
26178;BME280;13924;47.670;10.310;2023-03-25T19:17:01;93130;;;5.8;100.0
26178;BME280;13924;47.670;10.310;2023-03-25T19:32:03;93130;;;5.7;100.0
26178;BME280;13924;47.670;10.310;2023-03-25T19:47:35;93130;;;5.7;100.0
26178;BME280;13924;47.670;10.310;2023-03-25T20:17:03;92940;;;6.0;100.0
26178;BME280;13924;47.670;10.310;2023-03-25T20:32:04;92940;;;6.0;100.0
26178;BME280;13924;47.670;10.310;2023-03-25T20:47:07;92900;;;6.6;100.0
26178;BME280;13924;47.670;10.310;2023-03-25T21:02:05;92880;;;6.9;100.0
26178;BME280;13924;47.670;10.310;2023-03-25T21:17:05;92880;;;7.0;100.0
26178;BME280;13924;47.670;10.310;2023-03-25T21:32:06;92900;;;6.9;100.0
26178;BME280;13924;47.670;10.310;2023-03-25T21:47:06;92890;;;6.9;100.0
26178;BME280;13924;47.670;10.310;2023-03-25T22:02:08;92880;;;7.0;100.0
26178;BME280;13924;47.670;10.310;2023-03-25T22:17:34;92880;;;7.0;100.0
26178;BME280;13924;47.670;10.310;2023-03-25T22:32:09;92900;;;6.7;100.0
26178;BME280;13924;47.670;10.310;2023-03-25T22:47:11;92900;;;6.7;100.0
26178;BME280;13924;47.670;10.310;2023-03-25T23:01:01;92900;;;6.6;100.0
26178;BME280;13924;47.670;10.310;2023-03-25T23:15:57;92890;;;6.9;100.0
26178;BME280;13924;47.670;10.310;2023-03-25T23:45:40;92890;;;6.7;100.0
